sensor_id;sensor_type;location;lat;lon;timestamp;pressure;altitude;pressure_sealevel;temperature;humidity
52719;BME280;38616;42.140;24.760;2023-02-02T00:00:51;99674.34;;;5.71;41.46
52719;BME280;38616;42.140;24.760;2023-02-02T00:03:16;99664.31;;;5.67;41.39
52719;BME280;38616;42.140;24.760;2023-02-02T00:05:50;99678.97;;;5.76;41.19
52719;BME280;38616;42.140;24.760;2023-02-02T00:08:17;99689.03;;;5.81;40.87
52719;BME280;38616;42.140;24.760;2023-02-02T00:10:43;99690.41;;;5.83;41.15
52719;BME280;38616;42.140;24.760;2023-02-02T00:13:09;99677.50;;;5.85;40.66
52719;BME280;38616;42.140;24.760;2023-02-02T00:15:35;99681.66;;;5.93;40.70
52719;BME280;38616;42.140;24.760;2023-02-02T00:18:00;99699.47;;;5.94;40.51
52719;BME280;38616;42.140;24.760;2023-02-02T00:20:26;99699.41;;;5.89;40.75
52719;BME280;38616;42.140;24.760;2023-02-02T00:22:51;99686.69;;;6.01;40.56
52719;BME280;38616;42.140;24.760;2023-02-02T00:25:17;99684.28;;;5.88;40.63
52719;BME280;38616;42.140;24.760;2023-02-02T00:27:42;99701.28;;;5.88;40.90
52719;BME280;38616;42.140;24.760;2023-02-02T00:30:08;99694.16;;;5.99;41.27
52719;BME280;38616;42.140;24.760;2023-02-02T00:32:33;99695.84;;;6.00;41.11
52719;BME280;38616;42.140;24.760;2023-02-02T00:34:59;99696.06;;;5.82;41.95
52719;BME280;38616;42.140;24.760;2023-02-02T00:37:24;99692.88;;;5.85;41.86
52719;BME280;38616;42.140;24.760;2023-02-02T00:39:49;99697.19;;;5.86;41.92
52719;BME280;38616;42.140;24.760;2023-02-02T00:42:16;99697.69;;;5.48;42.48
52719;BME280;38616;42.140;24.760;2023-02-02T00:44:41;99688.22;;;5.29;42.97
52719;BME280;38616;42.140;24.760;2023-02-02T00:47:25;99694.41;;;5.29;43.50
52719;BME280;38616;42.140;24.760;2023-02-02T00:49:50;99688.31;;;5.51;42.91
52719;BME280;38616;42.140;24.760;2023-02-02T00:52:16;99685.94;;;5.55;43.03
52719;BME280;38616;42.140;24.760;2023-02-02T00:54:41;99674.75;;;5.63;42.52
52719;BME280;38616;42.140;24.760;2023-02-02T00:57:10;99684.94;;;5.78;42.29
52719;BME280;38616;42.140;24.760;2023-02-02T00:59:36;99675.47;;;5.75;42.53
52719;BME280;38616;42.140;24.760;2023-02-02T01:02:02;99675.88;;;5.84;42.18
52719;BME280;38616;42.140;24.760;2023-02-02T01:04:27;99674.22;;;6.17;41.66
52719;BME280;38616;42.140;24.760;2023-02-02T01:06:52;99685.91;;;6.06;41.84
52719;BME280;38616;42.140;24.760;2023-02-02T01:09:18;99691.81;;;5.52;43.08
52719;BME280;38616;42.140;24.760;2023-02-02T01:11:43;99697.19;;;5.52;43.05
52719;BME280;38616;42.140;24.760;2023-02-02T01:14:09;99691.56;;;5.70;42.80
52719;BME280;38616;42.140;24.760;2023-02-02T01:16:34;99702.44;;;5.58;43.12
52719;BME280;38616;42.140;24.760;2023-02-02T01:18:59;99688.53;;;5.50;42.91
52719;BME280;38616;42.140;24.760;2023-02-02T01:21:25;99691.06;;;5.39;43.07
52719;BME280;38616;42.140;24.760;2023-02-02T01:23:50;99689.84;;;5.64;42.77
52719;BME280;38616;42.140;24.760;2023-02-02T01:26:16;99689.19;;;5.57;43.11
52719;BME280;38616;42.140;24.760;2023-02-02T01:28:44;99695.88;;;5.37;43.67
52719;BME280;38616;42.140;24.760;2023-02-02T01:31:13;99706.72;;;5.42;43.06
52719;BME280;38616;42.140;24.760;2023-02-02T01:33:39;99712.28;;;5.36;43.36
52719;BME280;38616;42.140;24.760;2023-02-02T01:36:07;99710.94;;;5.67;43.14
52719;BME280;38616;42.140;24.760;2023-02-02T01:38:33;99710.22;;;5.72;43.03
52719;BME280;38616;42.140;24.760;2023-02-02T01:40:59;99694.66;;;5.96;42.31
52719;BME280;38616;42.140;24.760;2023-02-02T01:43:47;99709.94;;;5.73;42.91
52719;BME280;38616;42.140;24.760;2023-02-02T01:46:19;99700.88;;;5.80;42.38
52719;BME280;38616;42.140;24.760;2023-02-02T01:48:59;99710.69;;;5.86;42.61
52719;BME280;38616;42.140;24.760;2023-02-02T01:51:39;99697.38;;;5.62;43.31
52719;BME280;38616;42.140;24.760;2023-02-02T01:54:09;99693.94;;;5.67;42.60
52719;BME280;38616;42.140;24.760;2023-02-02T01:56:44;99699.66;;;6.04;42.19
52719;BME280;38616;42.140;24.760;2023-02-02T01:59:12;99694.31;;;5.92;42.78
52719;BME280;38616;42.140;24.760;2023-02-02T02:01:38;99690.91;;;5.80;43.16
52719;BME280;38616;42.140;24.760;2023-02-02T02:04:05;99702.13;;;5.72;43.16
52719;BME280;38616;42.140;24.760;2023-02-02T02:06:30;99705.69;;;5.77;42.79
52719;BME280;38616;42.140;24.760;2023-02-02T02:09:02;99701.88;;;5.56;43.27
52719;BME280;38616;42.140;24.760;2023-02-02T02:11:29;99706.50;;;5.61;43.35
52719;BME280;38616;42.140;24.760;2023-02-02T02:13:56;99695.66;;;5.73;42.99
52719;BME280;38616;42.140;24.760;2023-02-02T02:16:57;99704.47;;;5.68;43.10
52719;BME280;38616;42.140;24.760;2023-02-02T02:37:27;99686.56;;;5.96;43.50
52719;BME280;38616;42.140;24.760;2023-02-02T02:39:56;99692.38;;;5.88;43.65
52719;BME280;38616;42.140;24.760;2023-02-02T02:42:25;99693.28;;;5.76;43.74
52719;BME280;38616;42.140;24.760;2023-02-02T02:44:54;99690.34;;;5.61;44.16
52719;BME280;38616;42.140;24.760;2023-02-02T02:47:21;99691.47;;;5.82;43.37
52719;BME280;38616;42.140;24.760;2023-02-02T02:49:48;99690.91;;;5.97;43.61
52719;BME280;38616;42.140;24.760;2023-02-02T02:52:14;99683.31;;;5.94;43.50
52719;BME280;38616;42.140;24.760;2023-02-02T02:54:50;99676.75;;;6.07;42.83
52719;BME280;38616;42.140;24.760;2023-02-02T03:02:52;99665.13;;;6.24;42.81
52719;BME280;38616;42.140;24.760;2023-02-02T03:05:42;99668.59;;;6.02;43.29
52719;BME280;38616;42.140;24.760;2023-02-02T03:08:44;99666.19;;;6.23;43.29
52719;BME280;38616;42.140;24.760;2023-02-02T03:11:09;99665.25;;;6.12;42.62
52719;BME280;38616;42.140;24.760;2023-02-02T03:13:36;99669.94;;;6.21;42.72
52719;BME280;38616;42.140;24.760;2023-02-02T03:16:01;99666.06;;;6.12;42.31
52719;BME280;38616;42.140;24.760;2023-02-02T03:18:29;99675.47;;;6.32;42.42
52719;BME280;38616;42.140;24.760;2023-02-02T03:20:55;99668.25;;;6.38;41.83
52719;BME280;38616;42.140;24.760;2023-02-02T03:23:20;99664.50;;;6.39;41.64
52719;BME280;38616;42.140;24.760;2023-02-02T03:25:46;99664.69;;;6.54;41.55
52719;BME280;38616;42.140;24.760;2023-02-02T03:28:11;99661.56;;;6.40;41.59
52719;BME280;38616;42.140;24.760;2023-02-02T03:30:38;99670.59;;;6.29;41.76
52719;BME280;38616;42.140;24.760;2023-02-02T03:33:05;99663.34;;;6.34;41.85
52719;BME280;38616;42.140;24.760;2023-02-02T03:35:31;99653.69;;;6.39;41.89
52719;BME280;38616;42.140;24.760;2023-02-02T03:37:56;99650.56;;;6.47;41.64
52719;BME280;38616;42.140;24.760;2023-02-02T03:40:22;99651.69;;;6.51;41.48
52719;BME280;38616;42.140;24.760;2023-02-02T03:42:47;99642.47;;;6.47;41.31
52719;BME280;38616;42.140;24.760;2023-02-02T03:45:13;99650.69;;;6.35;41.72
52719;BME280;38616;42.140;24.760;2023-02-02T03:47:38;99655.97;;;6.25;42.29
52719;BME280;38616;42.140;24.760;2023-02-02T03:50:05;99648.91;;;6.68;41.64
52719;BME280;38616;42.140;24.760;2023-02-02T03:52:31;99658.72;;;6.52;41.75
52719;BME280;38616;42.140;24.760;2023-02-02T03:54:56;99660.28;;;6.26;41.98
52719;BME280;38616;42.140;24.760;2023-02-02T03:57:22;99659.97;;;6.22;42.27
52719;BME280;38616;42.140;24.760;2023-02-02T03:59:47;99639.66;;;6.14;42.29
52719;BME280;38616;42.140;24.760;2023-02-02T04:02:13;99671.56;;;6.00;43.02
52719;BME280;38616;42.140;24.760;2023-02-02T04:04:38;99654.06;;;6.03;42.53
52719;BME280;38616;42.140;24.760;2023-02-02T04:07:03;99649.50;;;6.03;42.85
52719;BME280;38616;42.140;24.760;2023-02-02T04:09:29;99644.41;;;6.07;42.74
52719;BME280;38616;42.140;24.760;2023-02-02T04:11:54;99635.56;;;6.12;42.85
52719;BME280;38616;42.140;24.760;2023-02-02T04:14:20;99649.50;;;6.03;42.76
52719;BME280;38616;42.140;24.760;2023-02-02T04:16:45;99660.91;;;5.94;43.48
52719;BME280;38616;42.140;24.760;2023-02-02T04:19:11;99658.97;;;5.89;43.32
52719;BME280;38616;42.140;24.760;2023-02-02T04:21:37;99665.25;;;5.77;43.45
52719;BME280;38616;42.140;24.760;2023-02-02T04:24:04;99667.97;;;5.77;43.79
52719;BME280;38616;42.140;24.760;2023-02-02T04:26:29;99675.06;;;6.01;43.14
52719;BME280;38616;42.140;24.760;2023-02-02T04:28:55;99670.81;;;5.88;43.34
52719;BME280;38616;42.140;24.760;2023-02-02T04:31:20;99675.72;;;5.91;43.33
52719;BME280;38616;42.140;24.760;2023-02-02T04:33:45;99676.47;;;6.03;43.52
52719;BME280;38616;42.140;24.760;2023-02-02T04:36:11;99680.75;;;5.87;43.56
52719;BME280;38616;42.140;24.760;2023-02-02T04:38:36;99668.97;;;5.54;44.29
52719;BME280;38616;42.140;24.760;2023-02-02T04:41:10;99685.94;;;5.55;44.32
52719;BME280;38616;42.140;24.760;2023-02-02T04:43:36;99681.28;;;5.67;44.09
52719;BME280;38616;42.140;24.760;2023-02-02T04:46:03;99698.84;;;5.70;43.88
52719;BME280;38616;42.140;24.760;2023-02-02T04:48:28;99700.63;;;5.64;44.60
52719;BME280;38616;42.140;24.760;2023-02-02T04:51:01;99701.28;;;5.54;44.55
52719;BME280;38616;42.140;24.760;2023-02-02T04:53:27;99696.78;;;5.60;44.08
52719;BME280;38616;42.140;24.760;2023-02-02T04:55:53;99689.50;;;5.43;44.21
52719;BME280;38616;42.140;24.760;2023-02-02T04:58:19;99689.78;;;5.42;44.10
52719;BME280;38616;42.140;24.760;2023-02-02T05:00:44;99706.66;;;5.37;44.26
52719;BME280;38616;42.140;24.760;2023-02-02T05:03:09;99698.50;;;5.49;44.46
52719;BME280;38616;42.140;24.760;2023-02-02T05:05:35;99695.56;;;5.51;44.38
52719;BME280;38616;42.140;24.760;2023-02-02T05:08:00;99707.84;;;5.58;44.37
52719;BME280;38616;42.140;24.760;2023-02-02T05:10:26;99713.13;;;5.53;44.19
52719;BME280;38616;42.140;24.760;2023-02-02T05:12:52;99719.50;;;5.47;44.39
52719;BME280;38616;42.140;24.760;2023-02-02T05:15:18;99706.03;;;5.47;43.85
52719;BME280;38616;42.140;24.760;2023-02-02T05:17:45;99702.44;;;5.58;44.16
52719;BME280;38616;42.140;24.760;2023-02-02T05:20:11;99713.72;;;5.55;44.04
52719;BME280;38616;42.140;24.760;2023-02-02T05:22:36;99714.91;;;5.47;44.22
52719;BME280;38616;42.140;24.760;2023-02-02T05:25:02;99713.84;;;5.48;43.90
52719;BME280;38616;42.140;24.760;2023-02-02T05:27:28;99721.84;;;5.43;44.17
52719;BME280;38616;42.140;24.760;2023-02-02T05:29:54;99708.16;;;5.62;43.89
52719;BME280;38616;42.140;24.760;2023-02-02T05:32:19;99716.63;;;5.54;43.54
52719;BME280;38616;42.140;24.760;2023-02-02T05:34:45;99725.69;;;5.47;43.98
52719;BME280;38616;42.140;24.760;2023-02-02T05:37:10;99726.91;;;5.40;43.76
52719;BME280;38616;42.140;24.760;2023-02-02T05:39:35;99730.38;;;5.52;43.83
52719;BME280;38616;42.140;24.760;2023-02-02T05:42:01;99728.63;;;5.29;44.27
52719;BME280;38616;42.140;24.760;2023-02-02T05:44:26;99738.56;;;5.28;44.00
52719;BME280;38616;42.140;24.760;2023-02-02T05:46:52;99730.66;;;5.39;44.27
52719;BME280;38616;42.140;24.760;2023-02-02T05:49:17;99732.09;;;5.58;43.57
52719;BME280;38616;42.140;24.760;2023-02-02T05:51:47;99733.47;;;5.61;43.67
52719;BME280;38616;42.140;24.760;2023-02-02T05:54:14;99737.00;;;5.79;43.04
52719;BME280;38616;42.140;24.760;2023-02-02T05:56:44;99741.63;;;5.49;43.73
52719;BME280;38616;42.140;24.760;2023-02-02T05:59:09;99742.59;;;5.60;44.02
52719;BME280;38616;42.140;24.760;2023-02-02T06:01:35;99748.66;;;5.67;43.56
52719;BME280;38616;42.140;24.760;2023-02-02T06:04:00;99731.34;;;5.63;43.26
52719;BME280;38616;42.140;24.760;2023-02-02T06:06:26;99729.06;;;5.72;42.96
52719;BME280;38616;42.140;24.760;2023-02-02T06:08:51;99735.75;;;5.86;42.93
52719;BME280;38616;42.140;24.760;2023-02-02T06:11:17;99733.59;;;6.00;42.74
52719;BME280;38616;42.140;24.760;2023-02-02T06:13:43;99748.28;;;6.10;42.63
52719;BME280;38616;42.140;24.760;2023-02-02T06:16:09;99746.25;;;6.17;42.53
52719;BME280;38616;42.140;24.760;2023-02-02T06:18:35;99750.00;;;6.16;42.26
52719;BME280;38616;42.140;24.760;2023-02-02T06:21:03;99750.06;;;6.04;42.55
52719;BME280;38616;42.140;24.760;2023-02-02T06:23:31;99762.06;;;5.96;42.52
52719;BME280;38616;42.140;24.760;2023-02-02T06:25:57;99763.72;;;5.97;42.58
52719;BME280;38616;42.140;24.760;2023-02-02T06:28:22;99764.06;;;6.01;42.74
52719;BME280;38616;42.140;24.760;2023-02-02T06:30:47;99766.25;;;6.04;42.56
52719;BME280;38616;42.140;24.760;2023-02-02T06:33:13;99756.03;;;5.89;42.39
52719;BME280;38616;42.140;24.760;2023-02-02T06:35:38;99768.09;;;5.86;42.52
52719;BME280;38616;42.140;24.760;2023-02-02T06:38:04;99758.88;;;5.99;41.95
52719;BME280;38616;42.140;24.760;2023-02-02T06:40:29;99754.53;;;5.81;42.23
52719;BME280;38616;42.140;24.760;2023-02-02T06:42:56;99771.22;;;5.95;41.69
52719;BME280;38616;42.140;24.760;2023-02-02T06:45:22;99760.56;;;6.00;41.90
52719;BME280;38616;42.140;24.760;2023-02-02T06:47:48;99758.16;;;6.21;41.64
52719;BME280;38616;42.140;24.760;2023-02-02T06:50:13;99746.00;;;6.01;41.23
52719;BME280;38616;42.140;24.760;2023-02-02T06:52:39;99761.38;;;6.18;40.99
52719;BME280;38616;42.140;24.760;2023-02-02T06:55:04;99751.25;;;6.30;40.99
52719;BME280;38616;42.140;24.760;2023-02-02T06:57:30;99756.31;;;6.44;40.63
52719;BME280;38616;42.140;24.760;2023-02-02T06:59:55;99746.84;;;6.24;40.86
52719;BME280;38616;42.140;24.760;2023-02-02T07:02:21;99754.53;;;6.49;40.62
52719;BME280;38616;42.140;24.760;2023-02-02T07:04:47;99758.94;;;6.39;40.98
52719;BME280;38616;42.140;24.760;2023-02-02T07:07:13;99777.41;;;6.47;40.51
52719;BME280;38616;42.140;24.760;2023-02-02T07:09:38;99767.81;;;6.56;40.44
52719;BME280;38616;42.140;24.760;2023-02-02T07:12:04;99771.03;;;6.53;41.07
52719;BME280;38616;42.140;24.760;2023-02-02T07:14:29;99780.25;;;6.57;40.96
52719;BME280;38616;42.140;24.760;2023-02-02T07:16:55;99784.47;;;6.70;40.80
52719;BME280;38616;42.140;24.760;2023-02-02T07:19:20;99786.28;;;6.64;40.94
52719;BME280;38616;42.140;24.760;2023-02-02T07:21:45;99782.09;;;6.74;41.19
52719;BME280;38616;42.140;24.760;2023-02-02T07:24:11;99775.06;;;6.73;40.44
52719;BME280;38616;42.140;24.760;2023-02-02T07:26:36;99784.16;;;6.89;41.19
52719;BME280;38616;42.140;24.760;2023-02-02T07:29:02;99774.91;;;7.07;40.29
52719;BME280;38616;42.140;24.760;2023-02-02T07:31:29;99768.00;;;7.16;40.86
52719;BME280;38616;42.140;24.760;2023-02-02T07:33:54;99776.22;;;7.27;40.49
52719;BME280;38616;42.140;24.760;2023-02-02T07:36:21;99770.81;;;7.27;39.93
52719;BME280;38616;42.140;24.760;2023-02-02T07:38:49;99781.72;;;7.37;40.23
52719;BME280;38616;42.140;24.760;2023-02-02T07:41:15;99769.28;;;7.63;39.75
52719;BME280;38616;42.140;24.760;2023-02-02T07:43:40;99768.09;;;7.49;39.56
52719;BME280;38616;42.140;24.760;2023-02-02T07:46:07;99767.59;;;7.84;39.41
52719;BME280;38616;42.140;24.760;2023-02-02T07:48:35;99777.75;;;8.05;38.68
52719;BME280;38616;42.140;24.760;2023-02-02T07:51:02;99768.28;;;8.07;38.21
52719;BME280;38616;42.140;24.760;2023-02-02T07:53:28;99782.09;;;8.06;38.75
52719;BME280;38616;42.140;24.760;2023-02-02T07:56:13;99777.44;;;8.01;38.54
52719;BME280;38616;42.140;24.760;2023-02-02T07:58:39;99769.78;;;7.88;39.17
52719;BME280;38616;42.140;24.760;2023-02-02T08:01:06;99776.00;;;7.88;39.45
52719;BME280;38616;42.140;24.760;2023-02-02T08:03:33;99782.94;;;8.11;38.72
52719;BME280;38616;42.140;24.760;2023-02-02T08:05:59;99762.91;;;8.12;38.71
52719;BME280;38616;42.140;24.760;2023-02-02T08:08:25;99778.63;;;8.16;39.28
52719;BME280;38616;42.140;24.760;2023-02-02T08:10:52;99781.88;;;8.18;39.15
52719;BME280;38616;42.140;24.760;2023-02-02T08:13:18;99773.47;;;7.76;39.32
52719;BME280;38616;42.140;24.760;2023-02-02T08:15:43;99769.34;;;8.06;39.25
52719;BME280;38616;42.140;24.760;2023-02-02T08:18:09;99767.09;;;8.31;38.98
52719;BME280;38616;42.140;24.760;2023-02-02T08:20:34;99765.56;;;8.07;38.85
52719;BME280;38616;42.140;24.760;2023-02-02T08:25:51;99769.44;;;8.17;39.30
52719;BME280;38616;42.140;24.760;2023-02-02T08:28:17;99766.81;;;8.27;38.37
52719;BME280;38616;42.140;24.760;2023-02-02T08:30:43;99762.97;;;8.23;38.81
52719;BME280;38616;42.140;24.760;2023-02-02T08:33:08;99767.69;;;8.38;38.53
52719;BME280;38616;42.140;24.760;2023-02-02T08:35:34;99763.19;;;8.11;39.44
52719;BME280;38616;42.140;24.760;2023-02-02T08:38:04;99748.09;;;8.20;38.77
52719;BME280;38616;42.140;24.760;2023-02-02T08:40:31;99766.06;;;8.42;38.14
52719;BME280;38616;42.140;24.760;2023-02-02T08:42:56;99761.41;;;8.32;38.10
52719;BME280;38616;42.140;24.760;2023-02-02T08:45:22;99756.25;;;8.25;38.16
52719;BME280;38616;42.140;24.760;2023-02-02T08:47:47;99764.75;;;8.45;38.37
52719;BME280;38616;42.140;24.760;2023-02-02T08:50:13;99759.00;;;8.84;37.72
52719;BME280;38616;42.140;24.760;2023-02-02T08:52:38;99744.91;;;8.77;37.03
52719;BME280;38616;42.140;24.760;2023-02-02T08:55:04;99757.88;;;8.69;37.38
52719;BME280;38616;42.140;24.760;2023-02-02T08:57:29;99747.31;;;8.73;36.99
52719;BME280;38616;42.140;24.760;2023-02-02T08:59:57;99747.09;;;8.80;37.31
52719;BME280;38616;42.140;24.760;2023-02-02T09:02:22;99764.53;;;8.51;37.50
52719;BME280;38616;42.140;24.760;2023-02-02T09:04:48;99750.22;;;8.56;37.59
52719;BME280;38616;42.140;24.760;2023-02-02T09:07:13;99750.78;;;8.58;37.57
52719;BME280;38616;42.140;24.760;2023-02-02T09:09:38;99731.97;;;9.05;36.80
52719;BME280;38616;42.140;24.760;2023-02-02T09:12:04;99736.78;;;8.77;37.12
52719;BME280;38616;42.140;24.760;2023-02-02T09:14:29;99723.56;;;9.01;36.67
52719;BME280;38616;42.140;24.760;2023-02-02T09:16:55;99725.41;;;8.85;36.83
52719;BME280;38616;42.140;24.760;2023-02-02T09:19:20;99711.06;;;8.84;36.79
52719;BME280;38616;42.140;24.760;2023-02-02T09:21:48;99706.00;;;9.19;36.45
52719;BME280;38616;42.140;24.760;2023-02-02T09:24:14;99719.00;;;9.17;36.39
52719;BME280;38616;42.140;24.760;2023-02-02T09:26:40;99720.28;;;8.83;37.09
52719;BME280;38616;42.140;24.760;2023-02-02T09:29:10;99705.72;;;9.05;36.65
52719;BME280;38616;42.140;24.760;2023-02-02T09:31:36;99696.78;;;9.25;36.33
52719;BME280;38616;42.140;24.760;2023-02-02T09:34:04;99687.06;;;9.55;36.06
52719;BME280;38616;42.140;24.760;2023-02-02T09:36:30;99692.19;;;9.57;36.04
52719;BME280;38616;42.140;24.760;2023-02-02T09:38:56;99670.50;;;9.67;36.00
52719;BME280;38616;42.140;24.760;2023-02-02T09:52:41;99681.34;;;9.67;35.42
52719;BME280;38616;42.140;24.760;2023-02-02T09:55:19;99670.75;;;9.76;35.28
52719;BME280;38616;42.140;24.760;2023-02-02T09:57:56;99672.66;;;9.81;35.58
52719;BME280;38616;42.140;24.760;2023-02-02T10:00:29;99670.75;;;9.81;35.48
52719;BME280;38616;42.140;24.760;2023-02-02T10:03:03;99662.59;;;9.81;35.39
52719;BME280;38616;42.140;24.760;2023-02-02T10:08:35;99637.22;;;10.32;35.16
52719;BME280;38616;42.140;24.760;2023-02-02T10:11:26;99637.50;;;10.46;34.75
52719;BME280;38616;42.140;24.760;2023-02-02T10:13:58;99622.56;;;10.33;35.11
52719;BME280;38616;42.140;24.760;2023-02-02T10:16:27;99609.25;;;10.47;34.39
52719;BME280;38616;42.140;24.760;2023-02-02T10:19:03;99600.84;;;10.44;34.57
52719;BME280;38616;42.140;24.760;2023-02-02T10:21:51;99604.09;;;10.35;34.74
52719;BME280;38616;42.140;24.760;2023-02-02T10:24:21;99599.19;;;10.38;35.26
52719;BME280;38616;42.140;24.760;2023-02-02T10:26:50;99592.16;;;10.37;34.97
52719;BME280;38616;42.140;24.760;2023-02-02T10:29:31;99596.97;;;10.55;34.63
52719;BME280;38616;42.140;24.760;2023-02-02T10:32:13;99598.19;;;10.23;34.60
52719;BME280;38616;42.140;24.760;2023-02-02T10:45:38;99591.63;;;10.40;33.39
52719;BME280;38616;42.140;24.760;2023-02-02T10:48:28;99587.81;;;10.35;34.14
52719;BME280;38616;42.140;24.760;2023-02-02T10:51:03;99573.47;;;10.25;34.15
52719;BME280;38616;42.140;24.760;2023-02-02T10:53:31;99568.25;;;10.33;34.19
52719;BME280;38616;42.140;24.760;2023-02-02T10:56:06;99546.75;;;10.53;34.04
52719;BME280;38616;42.140;24.760;2023-02-02T11:01:38;99542.84;;;10.64;33.78
52719;BME280;38616;42.140;24.760;2023-02-02T11:04:04;99539.34;;;10.63;33.44
52719;BME280;38616;42.140;24.760;2023-02-02T11:06:59;99544.47;;;10.65;33.60
52719;BME280;38616;42.140;24.760;2023-02-02T11:09:27;99531.13;;;10.74;33.51
52719;BME280;38616;42.140;24.760;2023-02-02T11:12:00;99537.00;;;10.86;33.20
52719;BME280;38616;42.140;24.760;2023-02-02T11:14:42;99529.94;;;10.85;33.31
52719;BME280;38616;42.140;24.760;2023-02-02T11:17:18;99510.03;;;10.95;33.48
52719;BME280;38616;42.140;24.760;2023-02-02T11:19:44;99508.44;;;11.18;33.24
52719;BME280;38616;42.140;24.760;2023-02-02T11:22:24;99507.78;;;11.02;32.93
52719;BME280;38616;42.140;24.760;2023-02-02T11:24:51;99507.75;;;11.07;32.87
52719;BME280;38616;42.140;24.760;2023-02-02T11:27:33;99483.34;;;11.27;32.53
52719;BME280;38616;42.140;24.760;2023-02-02T11:32:46;99469.00;;;11.21;32.74
52719;BME280;38616;42.140;24.760;2023-02-02T11:37:52;99453.56;;;12.08;31.98
52719;BME280;38616;42.140;24.760;2023-02-02T11:42:48;99444.97;;;11.77;32.17
52719;BME280;38616;42.140;24.760;2023-02-02T11:45:23;99437.81;;;12.05;31.68
52719;BME280;38616;42.140;24.760;2023-02-02T11:47:51;99436.00;;;11.76;31.00
52719;BME280;38616;42.140;24.760;2023-02-02T11:50:25;99446.47;;;11.88;29.53
52719;BME280;38616;42.140;24.760;2023-02-02T11:52:52;99421.50;;;11.81;29.72
52719;BME280;38616;42.140;24.760;2023-02-02T11:55:26;99427.13;;;11.90;29.98
52719;BME280;38616;42.140;24.760;2023-02-02T11:58:20;99423.19;;;11.77;30.31
52719;BME280;38616;42.140;24.760;2023-02-02T12:00:59;99410.13;;;11.79;29.95
52719;BME280;38616;42.140;24.760;2023-02-02T12:03:37;99423.03;;;12.11;29.63
52719;BME280;38616;42.140;24.760;2023-02-02T12:06:23;99430.81;;;12.37;29.48
52719;BME280;38616;42.140;24.760;2023-02-02T12:08:56;99414.72;;;12.22;28.47
52719;BME280;38616;42.140;24.760;2023-02-02T12:12:14;99424.06;;;12.16;28.27
52719;BME280;38616;42.140;24.760;2023-02-02T12:19:50;99424.72;;;12.07;29.19
52719;BME280;38616;42.140;24.760;2023-02-02T12:25:00;99413.72;;;11.93;28.94
52719;BME280;38616;42.140;24.760;2023-02-02T12:43:37;99410.63;;;11.62;29.78
52719;BME280;38616;42.140;24.760;2023-02-02T12:50:12;99420.59;;;11.47;28.98
52719;BME280;38616;42.140;24.760;2023-02-02T12:54:38;99410.44;;;11.53;29.17
52719;BME280;38616;42.140;24.760;2023-02-02T13:03:04;99418.00;;;11.56;28.79
52719;BME280;38616;42.140;24.760;2023-02-02T13:06:22;99392.09;;;11.64;28.50
52719;BME280;38616;42.140;24.760;2023-02-02T13:08:50;99383.03;;;11.68;28.62
52719;BME280;38616;42.140;24.760;2023-02-02T13:11:34;99393.25;;;11.77;28.20
52719;BME280;38616;42.140;24.760;2023-02-02T13:14:11;99373.97;;;11.54;28.47
52719;BME280;38616;42.140;24.760;2023-02-02T13:16:40;99370.38;;;11.40;28.69
52719;BME280;38616;42.140;24.760;2023-02-02T13:19:16;99366.75;;;11.44;29.31
52719;BME280;38616;42.140;24.760;2023-02-02T13:21:47;99360.72;;;11.28;29.15
52719;BME280;38616;42.140;24.760;2023-02-02T13:24:21;99376.38;;;11.36;29.19
52719;BME280;38616;42.140;24.760;2023-02-02T13:26:48;99367.59;;;11.45;29.05
52719;BME280;38616;42.140;24.760;2023-02-02T13:32:25;99369.63;;;11.53;29.14
52719;BME280;38616;42.140;24.760;2023-02-02T13:35:09;99362.00;;;11.55;29.05
52719;BME280;38616;42.140;24.760;2023-02-02T13:40:29;99370.59;;;11.43;29.56
52719;BME280;38616;42.140;24.760;2023-02-02T13:43:31;99365.59;;;11.50;29.82
52719;BME280;38616;42.140;24.760;2023-02-02T13:46:03;99358.41;;;11.79;29.44
52719;BME280;38616;42.140;24.760;2023-02-02T13:48:55;99364.28;;;11.67;29.01
52719;BME280;38616;42.140;24.760;2023-02-02T13:54:44;99359.56;;;11.73;28.41
52719;BME280;38616;42.140;24.760;2023-02-02T14:00:02;99351.72;;;11.71;28.05
52719;BME280;38616;42.140;24.760;2023-02-02T14:02:44;99366.56;;;11.79;27.92
52719;BME280;38616;42.140;24.760;2023-02-02T14:08:18;99386.22;;;11.08;33.90
52719;BME280;38616;42.140;24.760;2023-02-02T14:13:22;99402.69;;;9.83;40.39
52719;BME280;38616;42.140;24.760;2023-02-02T14:16:07;99397.13;;;9.59;42.18
52719;BME280;38616;42.140;24.760;2023-02-02T14:18:51;99384.41;;;9.54;42.54
52719;BME280;38616;42.140;24.760;2023-02-02T14:23:55;99389.28;;;9.57;42.70
52719;BME280;38616;42.140;24.760;2023-02-02T14:26:58;99379.75;;;9.60;42.84
52719;BME280;38616;42.140;24.760;2023-02-02T14:31:59;99410.03;;;9.83;42.19
52719;BME280;38616;42.140;24.760;2023-02-02T14:34:26;99395.63;;;9.82;41.81
52719;BME280;38616;42.140;24.760;2023-02-02T14:40:09;99413.41;;;10.09;39.85
52719;BME280;38616;42.140;24.760;2023-02-02T14:46:15;99412.06;;;10.07;39.28
52719;BME280;38616;42.140;24.760;2023-02-02T14:48:35;99408.09;;;10.28;38.49
52719;BME280;38616;42.140;24.760;2023-02-02T14:51:11;99421.94;;;10.32;38.52
52719;BME280;38616;42.140;24.760;2023-02-02T14:53:38;99420.31;;;10.31;38.69
52719;BME280;38616;42.140;24.760;2023-02-02T14:56:12;99423.03;;;10.31;39.10
52719;BME280;38616;42.140;24.760;2023-02-02T15:06:45;99405.59;;;10.02;41.02
52719;BME280;38616;42.140;24.760;2023-02-02T15:14:32;99396.44;;;9.88;42.21
52719;BME280;38616;42.140;24.760;2023-02-02T15:20:07;99409.22;;;9.77;43.01
52719;BME280;38616;42.140;24.760;2023-02-02T15:22:42;99413.31;;;9.74;43.15
52719;BME280;38616;42.140;24.760;2023-02-02T15:25:20;99436.88;;;9.84;43.46
52719;BME280;38616;42.140;24.760;2023-02-02T15:28:06;99434.25;;;9.69;43.89
52719;BME280;38616;42.140;24.760;2023-02-02T15:30:33;99433.72;;;9.67;43.91
52719;BME280;38616;42.140;24.760;2023-02-02T15:33:08;99447.81;;;9.69;43.96